createdAt,value
2018-06-21T00:01:47.555Z,13.47
2018-06-21T00:04:16.417Z,12.37
2018-06-21T00:06:45.187Z,14.40
2018-06-21T00:09:13.975Z,13.33
2018-06-21T00:11:42.729Z,14.20
2018-06-21T00:14:11.434Z,14.70
2018-06-21T00:16:40.154Z,16.57
2018-06-21T00:19:08.874Z,13.10
2018-06-21T00:21:37.593Z,15.03
2018-06-21T00:24:06.402Z,13.17
2018-06-21T00:26:35.139Z,13.50
2018-06-21T00:29:03.877Z,13.00
2018-06-21T00:31:32.700Z,11.63
2018-06-21T00:34:01.427Z,12.50
2018-06-21T00:36:30.190Z,13.00
2018-06-21T00:38:58.906Z,12.83
2018-06-21T00:41:27.628Z,13.03
2018-06-21T00:43:56.332Z,14.47
2018-06-21T00:46:25.033Z,11.43
2018-06-21T00:48:53.894Z,11.60
2018-06-21T00:51:22.597Z,13.47
2018-06-21T00:53:51.326Z,11.83
2018-06-21T00:56:20.878Z,13.40
2018-06-21T00:58:50.258Z,12.10
2018-06-21T01:01:19.569Z,12.43
2018-06-21T01:03:48.806Z,14.30
2018-06-21T01:06:17.729Z,12.07
2018-06-21T01:08:46.451Z,12.63
2018-06-21T01:11:15.172Z,11.80
2018-06-21T01:13:43.917Z,12.50
2018-06-21T01:16:12.717Z,13.27
2018-06-21T01:18:41.438Z,11.73
2018-06-21T01:21:10.158Z,13.47
2018-06-21T01:23:38.866Z,12.40
2018-06-21T01:26:07.590Z,13.43
2018-06-21T01:28:36.319Z,12.23
2018-06-21T01:31:05.059Z,12.97
2018-06-21T01:33:33.757Z,11.67
2018-06-21T01:36:02.481Z,12.20
2018-06-21T01:38:31.299Z,12.83
2018-06-21T01:41:00.012Z,12.43
2018-06-21T01:43:28.718Z,12.37
2018-06-21T01:45:57.415Z,10.67
2018-06-21T01:48:26.133Z,11.47
2018-06-21T01:50:54.856Z,12.47
2018-06-21T01:53:23.573Z,11.67
2018-06-21T01:55:52.322Z,10.30
2018-06-21T01:58:21.037Z,11.60
2018-06-21T02:00:49.746Z,12.30
2018-06-21T02:03:18.462Z,12.83
2018-06-21T02:05:47.186Z,12.50
2018-06-21T02:08:15.894Z,11.23
2018-06-21T02:10:44.620Z,11.70
2018-06-21T02:13:13.330Z,11.50
2018-06-21T02:15:42.034Z,13.27
2018-06-21T02:18:10.742Z,12.77
2018-06-21T02:20:39.475Z,13.77
2018-06-21T02:23:08.208Z,13.50
2018-06-21T02:25:36.960Z,12.73
2018-06-21T02:28:05.722Z,13.10
2018-06-21T02:30:34.438Z,13.10
2018-06-21T02:33:03.163Z,13.17
2018-06-21T02:35:31.922Z,12.70
2018-06-21T02:38:00.644Z,11.90
2018-06-21T02:40:29.349Z,13.27
2018-06-21T02:42:58.078Z,12.17
2018-06-21T02:45:26.803Z,12.97
2018-06-21T02:47:55.596Z,11.93
2018-06-21T02:50:24.459Z,12.93
2018-06-21T02:52:53.185Z,13.87
2018-06-21T02:55:21.923Z,11.90
2018-06-21T02:57:50.694Z,14.00
2018-06-21T03:00:19.812Z,13.07
2018-06-21T03:02:48.607Z,14.20
2018-06-21T03:05:17.339Z,12.50
2018-06-21T03:07:46.084Z,12.07
2018-06-21T03:10:14.847Z,15.00
2018-06-21T03:12:43.680Z,11.97
2018-06-21T03:15:12.531Z,11.83
2018-06-21T03:17:41.299Z,11.57
2018-06-21T03:20:10.038Z,11.77
2018-06-21T03:22:38.802Z,10.17
2018-06-21T03:25:07.614Z,12.33
2018-06-21T03:27:36.387Z,14.17
2018-06-21T03:30:05.146Z,11.07
2018-06-21T03:32:33.900Z,12.27
2018-06-21T03:35:02.645Z,11.70
2018-06-21T03:37:31.411Z,12.60
2018-06-21T03:40:00.282Z,12.93
2018-06-21T03:42:29.070Z,16.77
2018-06-21T03:44:57.846Z,9.63
2018-06-21T03:47:26.581Z,10.43
2018-06-21T03:49:55.354Z,9.03
2018-06-21T03:52:24.103Z,7.80
2018-06-21T03:54:52.844Z,7.73
2018-06-21T03:57:21.559Z,8.80
2018-06-21T03:59:50.318Z,8.60
2018-06-21T04:02:19.103Z,6.87
2018-06-21T04:04:47.889Z,7.50
2018-06-21T04:07:16.618Z,7.47
2018-06-21T04:09:45.377Z,6.13
2018-06-21T04:12:14.111Z,6.87
2018-06-21T04:14:42.825Z,7.93
2018-06-21T04:17:11.529Z,6.17
2018-06-21T04:19:40.235Z,6.30
2018-06-21T04:22:09.003Z,6.03
2018-06-21T04:24:38.077Z,6.70
2018-06-21T04:27:06.893Z,8.10
2018-06-21T04:29:35.610Z,6.10
2018-06-21T04:32:04.330Z,6.40
2018-06-21T04:34:33.162Z,6.90
2018-06-21T04:37:01.984Z,8.87
2018-06-21T04:39:31.231Z,6.43
2018-06-21T04:42:00.230Z,5.67
2018-06-21T04:44:29.332Z,7.10
2018-06-21T04:46:58.630Z,6.07
2018-06-21T04:49:27.518Z,6.63
2018-06-21T04:51:56.270Z,9.60
2018-06-21T04:54:24.978Z,7.30
2018-06-21T04:56:53.682Z,8.70
2018-06-21T04:59:22.433Z,6.00
2018-06-21T05:01:51.554Z,6.50
2018-06-21T05:04:20.794Z,6.13
2018-06-21T05:06:49.624Z,5.30
2018-06-21T05:09:18.367Z,4.90
2018-06-21T05:11:47.111Z,4.70
2018-06-21T05:14:15.825Z,5.77
2018-06-21T05:16:44.540Z,5.60
2018-06-21T05:19:13.268Z,4.90
2018-06-21T05:21:42.116Z,6.20
2018-06-21T05:24:10.837Z,5.87
2018-06-21T05:26:39.566Z,5.57
2018-06-21T05:29:08.289Z,5.10
2018-06-21T05:44:10.233Z,5.30
2018-06-21T05:46:38.997Z,5.27
2018-06-21T05:49:07.714Z,5.10
2018-06-21T05:51:36.461Z,5.50
2018-06-21T05:54:05.207Z,5.20
2018-06-21T05:56:34.017Z,4.43
2018-06-21T05:59:02.826Z,4.10
2018-06-21T06:01:31.549Z,4.67
2018-06-21T06:04:00.285Z,5.03
2018-06-21T06:06:29.063Z,5.20
2018-06-21T06:08:57.833Z,5.90
2018-06-21T06:11:26.561Z,5.37
2018-06-21T06:13:55.290Z,4.92
2018-06-21T06:16:24.032Z,4.90
2018-06-21T06:18:52.781Z,8.07
2018-06-21T06:21:21.555Z,5.00
2018-06-21T06:23:50.442Z,5.50
2018-06-21T06:26:19.158Z,5.58
2018-06-21T06:28:47.872Z,5.20
2018-06-21T06:31:16.634Z,5.25
2018-06-21T06:33:45.379Z,5.08
2018-06-21T06:36:14.172Z,5.08
2018-06-21T06:38:42.968Z,4.35
2018-06-21T06:41:11.874Z,6.60
2018-06-21T06:43:40.609Z,5.42
2018-06-21T06:46:09.350Z,4.90
2018-06-21T06:48:38.182Z,6.10
2018-06-21T06:51:06.927Z,5.03
2018-06-21T06:53:35.762Z,5.10
2018-06-21T06:56:04.546Z,5.08
2018-06-21T06:58:33.346Z,6.85
2018-06-21T07:01:02.068Z,5.15
2018-06-21T07:03:30.802Z,4.80
2018-06-21T07:05:59.549Z,4.60
2018-06-21T07:08:28.421Z,4.60
2018-06-21T07:10:57.130Z,5.08
2018-06-21T07:13:25.862Z,4.47
2018-06-21T07:15:54.570Z,5.35
2018-06-21T07:18:23.293Z,4.85
2018-06-21T07:20:52.049Z,5.25
2018-06-21T07:23:20.886Z,4.08
2018-06-21T07:25:49.817Z,4.58
2018-06-21T07:28:18.537Z,4.92
2018-06-21T07:30:47.247Z,4.22
2018-06-21T07:33:16.013Z,5.05
2018-06-21T07:35:44.755Z,4.00
2018-06-21T07:38:13.725Z,4.50
2018-06-21T07:40:42.460Z,4.80
2018-06-21T07:43:11.227Z,4.28
2018-06-21T07:45:39.994Z,4.53
2018-06-21T07:48:08.727Z,5.30
2018-06-21T07:50:37.675Z,5.50
2018-06-21T07:53:06.447Z,4.30
2018-06-21T07:55:35.165Z,4.45
2018-06-21T07:58:03.869Z,3.95
2018-06-21T08:00:32.797Z,4.12
2018-06-21T08:03:01.513Z,4.15
2018-06-21T08:05:30.239Z,4.83
2018-06-21T08:07:59.031Z,4.65
2018-06-21T08:10:27.757Z,4.33
2018-06-21T08:12:56.496Z,8.88
2018-06-21T08:15:25.226Z,5.10
2018-06-21T08:17:53.966Z,4.15
2018-06-21T08:20:22.699Z,5.35
2018-06-21T08:22:51.440Z,4.90
2018-06-21T08:25:20.204Z,4.42
2018-06-21T08:27:49.018Z,5.10
2018-06-21T08:30:17.765Z,5.62
2018-06-21T08:32:47.482Z,6.58
2018-06-21T08:35:16.557Z,7.00
2018-06-21T08:37:45.323Z,4.75
2018-06-21T08:40:14.098Z,4.15
2018-06-21T08:42:42.865Z,5.62
2018-06-21T08:45:11.573Z,5.33
2018-06-21T08:47:40.298Z,6.65
2018-06-21T08:50:09.015Z,4.42
2018-06-21T08:52:37.728Z,5.03
2018-06-21T08:55:06.837Z,4.72
2018-06-21T08:57:35.652Z,3.87
2018-06-21T09:00:04.419Z,3.12
2018-06-21T09:02:33.566Z,3.90
2018-06-21T09:05:02.330Z,5.10
2018-06-21T09:20:31.035Z,3.67
2018-06-21T09:22:59.765Z,3.00
2018-06-21T09:25:28.511Z,4.25
2018-06-21T09:27:57.255Z,3.22
2018-06-21T09:30:25.981Z,4.55
2018-06-21T09:32:54.738Z,4.10
2018-06-21T09:35:23.455Z,4.83
2018-06-21T09:37:57.381Z,4.50
2018-06-21T09:40:31.254Z,3.55
2018-06-21T09:43:05.149Z,4.25
2018-06-21T09:45:38.930Z,4.03
2018-06-21T09:48:12.901Z,3.83
2018-06-21T09:50:41.642Z,4.10
2018-06-21T09:53:10.388Z,4.33
2018-06-21T09:55:39.100Z,3.62
2018-06-21T09:58:07.805Z,3.30
2018-06-21T10:00:41.947Z,3.60
2018-06-21T10:03:10.664Z,3.83
2018-06-21T10:05:39.389Z,3.72
2018-06-21T10:08:08.130Z,3.83
2018-06-21T10:10:36.871Z,4.00
2018-06-21T10:13:05.618Z,3.65
2018-06-21T10:15:34.992Z,3.47
2018-06-21T10:18:04.170Z,3.17
2018-06-21T10:20:33.593Z,4.45
2018-06-21T10:23:02.671Z,3.40
2018-06-21T10:25:31.534Z,4.08
2018-06-21T10:28:00.444Z,3.85
2018-06-21T10:30:29.232Z,3.00
2018-06-21T10:32:58.058Z,3.75
2018-06-21T10:35:26.855Z,3.52
2018-06-21T10:37:55.710Z,4.67
2018-06-21T10:40:24.546Z,4.62
2018-06-21T10:42:53.643Z,3.20
2018-06-21T10:45:22.560Z,3.77
2018-06-21T10:47:51.550Z,3.62
2018-06-21T10:50:20.403Z,3.25
2018-06-21T10:52:49.355Z,3.25
2018-06-21T10:55:18.083Z,3.40
2018-06-21T10:57:47.051Z,2.90
2018-06-21T11:00:15.869Z,2.75
2018-06-21T11:02:45.018Z,2.95
2018-06-21T11:05:13.899Z,2.90
2018-06-21T11:07:43.220Z,2.87
2018-06-21T11:10:13.622Z,3.58
2018-06-21T11:12:42.456Z,3.25
2018-06-21T11:15:11.150Z,3.52
2018-06-21T11:17:39.890Z,3.02
2018-06-21T11:20:09.436Z,3.10
2018-06-21T11:22:41.066Z,3.22
2018-06-21T11:25:09.796Z,3.12
2018-06-21T11:27:38.557Z,3.22
2018-06-21T11:30:07.616Z,2.95
2018-06-21T11:32:36.296Z,3.00
2018-06-21T11:35:05.047Z,3.00
2018-06-21T11:37:34.438Z,3.17
2018-06-21T11:40:03.180Z,2.52
2018-06-21T11:42:31.909Z,3.02
2018-06-21T11:45:00.625Z,3.30
2018-06-21T11:47:29.349Z,3.00
2018-06-21T11:49:58.070Z,2.95
2018-06-21T11:52:26.766Z,2.60
2018-06-21T11:54:55.498Z,2.52
2018-06-21T11:57:24.201Z,2.42
2018-06-21T11:59:52.969Z,3.15
2018-06-21T12:02:21.748Z,2.83
2018-06-21T12:04:50.434Z,2.80
2018-06-21T12:07:19.204Z,3.27
2018-06-21T12:09:47.905Z,3.45
2018-06-21T12:12:16.638Z,3.75
2018-06-21T12:14:45.441Z,3.17
2018-06-21T12:17:14.209Z,2.72
2018-06-21T12:19:42.905Z,2.10
2018-06-21T12:22:11.798Z,2.35
2018-06-21T12:24:40.540Z,2.92
2018-06-21T12:27:09.405Z,1.75
2018-06-21T12:29:38.239Z,2.47
2018-06-21T12:32:06.977Z,1.92
2018-06-21T12:34:35.726Z,2.58
2018-06-21T12:37:04.482Z,2.63
2018-06-21T12:39:33.253Z,2.43
2018-06-21T12:42:02.006Z,3.00
2018-06-21T12:44:30.740Z,3.10
2018-06-21T12:46:59.557Z,3.20
2018-06-21T12:49:28.331Z,3.40
2018-06-21T12:51:57.206Z,3.10
2018-06-21T12:54:26.194Z,4.20
2018-06-21T12:56:54.921Z,3.80
2018-06-21T12:59:23.643Z,2.97
2018-06-21T13:01:52.397Z,2.30
2018-06-21T13:04:21.225Z,2.63
2018-06-21T13:06:50.017Z,2.70
2018-06-21T13:09:31.549Z,2.70
2018-06-21T13:12:25.204Z,3.40
2018-06-21T13:14:54.335Z,2.70
2018-06-21T13:17:23.091Z,2.80
2018-06-21T13:19:51.847Z,2.20
2018-06-21T13:22:20.727Z,5.20
2018-06-21T13:24:49.477Z,2.40
2018-06-21T13:27:18.426Z,2.73
2018-06-21T13:29:47.126Z,2.40
2018-06-21T13:32:15.854Z,2.83
2018-06-21T13:34:44.553Z,3.83
2018-06-21T13:37:13.422Z,2.93
2018-06-21T13:39:42.204Z,3.23
2018-06-21T13:42:10.901Z,3.43
2018-06-21T13:44:39.614Z,3.10
2018-06-21T13:47:08.436Z,3.10
2018-06-21T13:49:37.161Z,2.90
2018-06-21T13:52:06.242Z,3.00
2018-06-21T13:57:08.771Z,6.33
2018-06-21T13:59:37.506Z,5.50
2018-06-21T14:02:06.278Z,6.50
2018-06-21T14:04:34.987Z,6.50
2018-06-21T14:07:03.679Z,5.43
2018-06-21T14:09:32.428Z,5.50
2018-06-21T14:12:01.143Z,4.70
2018-06-21T14:14:29.845Z,4.37
2018-06-21T14:16:58.541Z,4.80
2018-06-21T14:19:27.246Z,4.97
2018-06-21T14:21:56.476Z,5.00
2018-06-21T14:24:25.233Z,4.47
2018-06-21T14:26:53.921Z,5.10
2018-06-21T14:29:22.626Z,4.50
2018-06-21T14:31:51.310Z,5.60
2018-06-21T14:34:20.027Z,3.90
2018-06-21T14:36:48.726Z,4.07
2018-06-21T14:39:17.438Z,4.77
2018-06-21T14:41:46.341Z,4.07
2018-06-21T14:44:15.479Z,4.50
2018-06-21T14:46:44.252Z,5.27
2018-06-21T14:49:12.957Z,4.43
2018-06-21T14:51:41.661Z,3.63
2018-06-21T14:54:10.377Z,4.90
2018-06-21T14:56:39.130Z,4.93
2018-06-21T14:59:07.998Z,3.50
2018-06-21T15:01:36.847Z,4.00
2018-06-21T15:04:05.780Z,5.50
2018-06-21T15:06:34.857Z,3.70
2018-06-21T15:09:04.575Z,4.70
2018-06-21T15:11:33.133Z,4.40
2018-06-21T15:14:01.832Z,3.43
2018-06-21T15:16:30.525Z,5.30
2018-06-21T15:18:59.227Z,3.83
2018-06-21T15:21:27.966Z,4.70
2018-06-21T15:23:56.695Z,3.80
2018-06-21T15:26:25.442Z,3.50
2018-06-21T15:28:54.150Z,3.40
2018-06-21T15:31:22.922Z,4.70
2018-06-21T15:33:51.622Z,4.13
2018-06-21T15:36:20.375Z,3.77
2018-06-21T15:38:49.065Z,4.17
2018-06-21T15:41:17.753Z,4.77
2018-06-21T15:43:46.466Z,4.77
2018-06-21T15:46:15.163Z,5.20
2018-06-21T15:48:43.871Z,4.10
2018-06-21T15:51:12.578Z,4.90
2018-06-21T15:53:41.286Z,4.40
2018-06-21T15:56:10.050Z,4.60
2018-06-21T15:58:38.790Z,4.10
2018-06-21T16:01:07.567Z,4.60
2018-06-21T16:03:36.469Z,5.07
2018-06-21T16:06:05.332Z,4.20
2018-06-21T16:08:34.074Z,3.57
2018-06-21T16:11:02.778Z,3.77
2018-06-21T16:13:31.833Z,5.30
2018-06-21T16:16:00.734Z,3.70
2018-06-21T16:18:29.613Z,5.03
2018-06-21T16:20:58.330Z,5.33
2018-06-21T16:23:27.030Z,5.80
2018-06-21T16:25:55.722Z,4.80
2018-06-21T16:28:24.540Z,5.97
2018-06-21T16:30:53.149Z,5.07
2018-06-21T16:33:21.869Z,5.53
2018-06-21T16:35:50.550Z,6.63
2018-06-21T16:38:19.265Z,5.40
2018-06-21T16:40:48.035Z,5.00
2018-06-21T16:43:16.717Z,6.50
2018-06-21T16:45:45.437Z,5.77
2018-06-21T16:48:14.163Z,4.73
2018-06-21T16:50:42.871Z,5.70
2018-06-21T16:53:11.575Z,5.97
2018-06-21T16:55:40.306Z,6.33
2018-06-21T16:58:09.201Z,6.17
2018-06-21T17:00:37.911Z,8.73
2018-06-21T17:03:06.605Z,7.40
2018-06-21T17:05:35.356Z,5.90
2018-06-21T17:08:04.124Z,5.00
2018-06-21T17:10:32.877Z,5.70
2018-06-21T17:13:01.630Z,6.57
2018-06-21T17:15:30.326Z,6.40
2018-06-21T17:17:59.488Z,5.70
2018-06-21T17:20:28.510Z,6.10
2018-06-21T17:22:57.710Z,5.90
2018-06-21T17:25:26.813Z,6.07
2018-06-21T17:27:56.109Z,7.73
2018-06-21T17:30:25.239Z,6.30
2018-06-21T17:32:54.094Z,6.07
2018-06-21T17:35:23.306Z,5.53
2018-06-21T17:37:52.301Z,6.53
2018-06-21T17:40:21.591Z,7.77
2018-06-21T17:42:50.897Z,8.00
2018-06-21T17:45:19.963Z,10.93
2018-06-21T17:47:49.127Z,15.80
2018-06-21T17:50:18.323Z,7.30
2018-06-21T17:52:47.493Z,18.23
2018-06-21T17:55:16.556Z,6.67
2018-06-21T17:57:45.920Z,9.53
2018-06-21T18:00:15.007Z,9.27
2018-06-21T18:02:44.408Z,6.90
2018-06-21T18:05:13.569Z,8.80
2018-06-21T18:07:42.790Z,6.57
2018-06-21T18:10:11.753Z,6.80
2018-06-21T18:12:40.789Z,8.50
2018-06-21T18:15:09.957Z,6.97
2018-06-21T18:17:39.049Z,6.33
2018-06-21T18:20:08.220Z,7.60
2018-06-21T18:22:37.264Z,13.10
2018-06-21T18:25:06.447Z,20.57
2018-06-21T18:27:35.581Z,8.93
2018-06-21T18:30:04.738Z,7.73
2018-06-21T18:32:34.001Z,7.93
2018-06-21T18:35:03.338Z,8.37
2018-06-21T18:37:32.529Z,7.97
2018-06-21T18:40:01.733Z,12.47
2018-06-21T18:42:30.952Z,10.30
2018-06-21T18:45:00.161Z,8.30
2018-06-21T18:47:29.242Z,7.83
2018-06-21T18:49:58.320Z,7.60
2018-06-21T18:52:27.525Z,7.90
2018-06-21T18:54:56.732Z,8.00
2018-06-21T18:57:25.865Z,8.57
2018-06-21T18:59:55.125Z,8.03
2018-06-21T19:02:24.327Z,8.67
2018-06-21T19:04:53.631Z,8.50
2018-06-21T19:07:28.002Z,7.97
2018-06-21T19:10:02.524Z,9.03
2018-06-21T19:12:31.796Z,8.50
2018-06-21T19:15:00.943Z,8.53
2018-06-21T19:17:30.044Z,8.30
2018-06-21T19:19:59.097Z,10.10
2018-06-21T19:22:28.273Z,9.50
2018-06-21T19:24:57.452Z,10.10
2018-06-21T19:27:26.780Z,8.20
2018-06-21T19:29:55.830Z,7.53
2018-06-21T19:32:24.829Z,8.50
2018-06-21T19:34:53.879Z,7.27
2018-06-21T19:37:23.033Z,8.63
2018-06-21T19:39:52.253Z,8.40
2018-06-21T19:42:21.435Z,7.30
2018-06-21T19:44:50.453Z,7.80
2018-06-21T19:47:19.482Z,10.33
2018-06-21T19:49:48.729Z,9.20
2018-06-21T19:52:17.938Z,7.50
2018-06-21T19:54:47.163Z,9.80
2018-06-21T19:57:16.295Z,7.80
2018-06-21T19:59:45.504Z,8.73
2018-06-21T20:02:14.710Z,7.77
2018-06-21T20:04:43.890Z,9.90
2018-06-21T20:07:13.355Z,9.13
2018-06-21T20:09:42.393Z,10.73
2018-06-21T20:12:11.589Z,11.03
2018-06-21T20:14:40.809Z,9.47
2018-06-21T20:17:10.010Z,9.53
2018-06-21T20:19:44.436Z,9.37
2018-06-21T20:22:13.722Z,9.70
2018-06-21T20:24:42.797Z,11.30
2018-06-21T20:27:12.014Z,10.23
2018-06-21T20:29:41.201Z,9.27
2018-06-21T20:32:10.290Z,9.97
2018-06-21T20:34:39.385Z,10.70
2018-06-21T20:37:12.615Z,10.43
2018-06-21T20:39:41.877Z,8.97
2018-06-21T20:42:11.101Z,10.20
2018-06-21T20:44:40.314Z,12.70
2018-06-21T20:47:09.481Z,10.97
2018-06-21T20:49:38.681Z,10.10
2018-06-21T20:52:12.075Z,9.63
2018-06-21T20:54:41.400Z,10.17
2018-06-21T20:57:10.701Z,9.50
2018-06-21T20:59:40.078Z,10.10
2018-06-21T21:02:09.285Z,8.60
2018-06-21T21:05:16.269Z,9.23
2018-06-21T21:07:46.530Z,8.10
2018-06-21T21:10:16.625Z,8.80
2018-06-21T21:12:45.694Z,9.47
2018-06-21T21:15:15.357Z,8.90
2018-06-21T21:17:44.632Z,8.73
2018-06-21T21:20:13.901Z,9.30
2018-06-21T21:22:43.135Z,8.17
2018-06-21T21:25:12.298Z,8.80
2018-06-21T21:27:41.597Z,8.80
2018-06-21T21:30:10.883Z,9.73
2018-06-21T21:32:40.028Z,10.30
2018-06-21T21:35:09.201Z,10.07
2018-06-21T21:37:38.434Z,10.33
2018-06-21T21:40:08.113Z,10.57
2018-06-21T21:42:38.398Z,9.37
2018-06-21T21:45:07.666Z,10.80
2018-06-21T21:47:36.734Z,10.70
2018-06-21T21:50:05.922Z,10.20
2018-06-21T21:52:35.158Z,10.63
2018-06-21T21:55:04.363Z,11.13
2018-06-21T21:57:33.516Z,11.43
2018-06-21T22:00:02.718Z,10.87
2018-06-21T22:02:32.009Z,11.87
2018-06-21T22:05:01.307Z,9.50
2018-06-21T22:07:30.642Z,10.50
2018-06-21T22:09:59.714Z,11.60
2018-06-21T22:12:28.914Z,12.03
2018-06-21T22:14:58.110Z,11.70
2018-06-21T22:17:27.323Z,12.40
2018-06-21T22:19:56.325Z,11.73
2018-06-21T22:22:25.381Z,12.80
2018-06-21T22:24:54.609Z,12.63
2018-06-21T22:27:23.810Z,11.00
2018-06-21T22:29:52.993Z,12.13
2018-06-21T22:32:22.229Z,12.10
2018-06-21T22:34:51.401Z,11.47
2018-06-21T22:37:20.384Z,11.70
2018-06-21T22:39:49.606Z,10.30
2018-06-21T22:42:18.773Z,10.87
2018-06-21T22:44:48.025Z,10.00
2018-06-21T22:47:17.193Z,12.20
2018-06-21T22:49:46.390Z,10.97
2018-06-21T22:52:15.594Z,11.97
2018-06-21T22:54:44.774Z,10.43
2018-06-21T22:57:13.969Z,10.53
2018-06-21T22:59:43.170Z,11.57
2018-06-21T23:02:12.375Z,13.50
2018-06-21T23:04:41.339Z,12.73
2018-06-21T23:07:10.450Z,11.00
2018-06-21T23:09:39.650Z,12.67
2018-06-21T23:12:08.741Z,11.60
2018-06-21T23:14:37.948Z,12.97
2018-06-21T23:17:07.135Z,10.50
2018-06-21T23:19:36.480Z,13.87
2018-06-21T23:22:05.641Z,12.97
2018-06-21T23:24:34.868Z,11.67
2018-06-21T23:27:04.139Z,12.37
2018-06-21T23:29:33.233Z,12.50
2018-06-21T23:32:02.541Z,12.10
2018-06-21T23:34:31.733Z,11.03
2018-06-21T23:37:00.867Z,12.13
2018-06-21T23:39:29.797Z,12.00
2018-06-21T23:41:58.920Z,12.47
2018-06-21T23:44:28.145Z,12.67
2018-06-21T23:46:57.319Z,13.93
2018-06-21T23:49:26.519Z,12.40
2018-06-21T23:51:55.716Z,12.07
2018-06-21T23:54:24.946Z,12.17
2018-06-21T23:56:54.101Z,9.97
2018-06-21T23:59:22.788Z,12.30
